Ana Sayfa
METAR-TAF:

METAR-TAF

Havaalanları :

Town MET

Windhoek, Namibya

Enlem: 22-34S, Boylam: 017-06E, yükseklik: 1725 m

Güncel hava durumu gözlemi

Rapor saat 06:00 UTC de 1 saat ve 28 dakika önce yapıldı.
Rüzgar doğu/güneydoğudan 8 kt
Sıcaklık 21°C
Nem 26%
Basınç 1025 hPa
Görüş mesafesi 10 km veya daha fazla
1500 m altında bulut yok ve kümülonimbus yok

METAR: FYWW 150600Z 11008KT CAVOK 21/01 Q1025

Saat: 09:28 (07:28 UTC)


TAF: eksik

4.000'den fazla havaalanı için hava durumu gözlemleri ve tahminleri (METAR ve TAF raporları).

Kullanılabilir istasyonlar harita üzerinde sarı ve kırmızı noktalarla gösterilir.

İstasyonun adını görmek için fareyi noktanın üzerinde gezdirin.

Sonrasında hava gözlem ve tahminlerini görmek için tıklayın.

Haritayı değiştirmek için: yaklaştırmak için siyah artı işaretli yeşil düğmeye ve uzaklaştırmak için de eksi işaretli düğmeye hızla tıklayın; bitişik haritalar için yeşil okları kullanın.


METAR-TAF: